createdAt,value
2022-10-02T00:02:24.667Z,13.19
2022-10-02T00:05:14.242Z,13.16
2022-10-02T00:07:46.622Z,13.17
2022-10-02T00:10:18.794Z,13.16
2022-10-02T00:12:45.986Z,13.17
2022-10-02T00:15:20.396Z,13.18
2022-10-02T00:17:51.277Z,13.16
2022-10-02T00:20:21.854Z,13.14
2022-10-02T00:22:54.474Z,13.13
2022-10-02T00:25:30.174Z,13.14
2022-10-02T00:28:21.956Z,13.12
2022-10-02T00:31:03.498Z,13.11
2022-10-02T00:33:45.080Z,13.11
2022-10-02T00:36:30.856Z,13.09
2022-10-02T00:39:05.815Z,13.06
2022-10-02T00:41:59.339Z,13.04
2022-10-02T00:44:44.064Z,13.04
2022-10-02T00:47:22.366Z,13.04
2022-10-02T00:50:10.467Z,13.03
2022-10-02T00:52:51.169Z,13.04
2022-10-02T00:55:35.795Z,13.04
2022-10-02T00:58:22.738Z,13.04
2022-10-02T01:00:59.672Z,13.03
2022-10-02T01:03:53.351Z,13.01
2022-10-02T01:06:24.188Z,13.01
2022-10-02T01:08:52.077Z,13.03
2022-10-02T01:11:24.243Z,13.01
2022-10-02T01:13:51.244Z,13.01
2022-10-02T01:16:18.198Z,12.98
2022-10-02T01:18:47.897Z,12.99
2022-10-02T01:21:37.031Z,12.99
2022-10-02T01:24:14.799Z,12.95
2022-10-02T01:26:41.190Z,12.95
2022-10-02T01:29:07.619Z,12.94
2022-10-02T01:31:38.252Z,12.93
2022-10-02T01:34:05.033Z,12.91
2022-10-02T01:36:31.525Z,12.91
2022-10-02T01:38:59.195Z,12.90
2022-10-02T01:41:25.779Z,12.92
2022-10-02T01:44:01.327Z,12.90
2022-10-02T01:46:37.428Z,12.88
2022-10-02T01:49:22.918Z,12.89
2022-10-02T01:52:08.126Z,12.93
2022-10-02T01:54:53.018Z,12.98
2022-10-02T01:57:31.583Z,13.04
2022-10-02T02:00:08.056Z,13.00
2022-10-02T02:02:41.315Z,12.99
2022-10-02T02:05:28.105Z,13.01
2022-10-02T02:08:07.971Z,12.99
2022-10-02T02:11:02.238Z,12.99
2022-10-02T02:13:35.049Z,13.02
2022-10-02T02:16:18.578Z,12.99
2022-10-02T02:19:09.029Z,13.04
2022-10-02T02:21:42.760Z,13.03
2022-10-02T02:24:15.740Z,13.06
2022-10-02T02:26:45.474Z,13.06
2022-10-02T02:29:16.912Z,13.10
2022-10-02T02:31:51.130Z,13.08
2022-10-02T02:34:23.015Z,13.12
2022-10-02T02:36:55.136Z,13.10
2022-10-02T02:39:47.916Z,13.06
2022-10-02T02:42:21.673Z,13.04
2022-10-02T02:44:57.554Z,13.02
2022-10-02T02:47:29.114Z,13.06
2022-10-02T02:49:59.458Z,13.06
2022-10-02T02:52:36.020Z,13.04
2022-10-02T02:55:15.339Z,13.00
2022-10-02T02:57:45.884Z,13.03
2022-10-02T03:00:15.541Z,13.03
2022-10-02T03:02:45.130Z,13.02
2022-10-02T03:05:17.228Z,13.03
2022-10-02T03:07:52.620Z,13.05
2022-10-02T03:10:31.148Z,13.04
2022-10-02T03:13:32.536Z,13.02
2022-10-02T03:19:18.781Z,13.04
2022-10-02T03:22:05.602Z,13.06
2022-10-02T03:24:42.746Z,13.06
2022-10-02T03:27:15.998Z,13.10
2022-10-02T03:29:53.071Z,13.07
2022-10-02T03:32:21.346Z,13.07
2022-10-02T03:34:48.597Z,13.10
2022-10-02T03:37:15.804Z,13.12
2022-10-02T03:39:45.774Z,13.12
2022-10-02T03:42:14.672Z,13.14
2022-10-02T03:44:41.152Z,13.15
2022-10-02T03:47:12.823Z,13.15
2022-10-02T03:50:09.276Z,13.14
2022-10-02T03:52:36.210Z,13.14
2022-10-02T03:55:05.978Z,13.14
2022-10-02T03:57:34.651Z,13.16
2022-10-02T04:00:13.006Z,13.16
2022-10-02T04:02:47.538Z,13.18
2022-10-02T04:05:25.911Z,13.18
2022-10-02T04:07:57.377Z,13.18
2022-10-02T04:10:33.090Z,13.19
2022-10-02T04:13:08.033Z,13.19
2022-10-02T04:16:02.698Z,13.20
2022-10-02T04:18:39.712Z,13.19
2022-10-02T04:21:47.553Z,13.21
2022-10-02T04:24:42.765Z,13.22
2022-10-02T04:27:33.474Z,13.19
2022-10-02T04:30:04.243Z,13.18
2022-10-02T04:32:32.205Z,13.19
2022-10-02T04:34:59.195Z,13.20
2022-10-02T04:37:40.548Z,13.24
2022-10-02T04:40:26.072Z,13.22
2022-10-02T04:43:19.049Z,13.22
2022-10-02T04:46:07.733Z,13.20
2022-10-02T04:49:09.281Z,13.20
2022-10-02T04:52:02.812Z,13.20
2022-10-02T04:54:52.324Z,13.19
2022-10-02T04:57:36.778Z,13.20
2022-10-02T05:00:25.318Z,13.17
2022-10-02T05:02:54.674Z,13.17
2022-10-02T05:05:46.015Z,13.20
2022-10-02T05:09:08.698Z,13.18
2022-10-02T05:11:56.260Z,13.17
2022-10-02T05:15:04.849Z,13.17
2022-10-02T05:17:56.790Z,13.15
2022-10-02T05:20:48.701Z,13.18
2022-10-02T05:23:34.841Z,13.16
2022-10-02T05:26:15.195Z,13.17
2022-10-02T05:29:19.278Z,13.17
2022-10-02T05:32:05.923Z,13.16
2022-10-02T05:34:51.077Z,13.15
2022-10-02T05:37:27.033Z,13.14
2022-10-02T05:40:10.894Z,13.13
2022-10-02T05:42:48.538Z,13.15
2022-10-02T05:45:21.527Z,13.15
2022-10-02T05:47:50.826Z,13.16
2022-10-02T05:50:26.659Z,13.17
2022-10-02T05:53:31.704Z,13.15
2022-10-02T05:56:16.359Z,13.15
2022-10-02T05:58:58.889Z,13.16
2022-10-02T06:01:31.958Z,13.17
2022-10-02T06:04:06.143Z,13.16
2022-10-02T06:06:41.550Z,13.17
2022-10-02T06:09:22.943Z,13.19
2022-10-02T06:11:54.604Z,13.19
2022-10-02T06:14:47.333Z,13.20
2022-10-02T06:17:28.241Z,13.20
2022-10-02T06:20:13.782Z,13.21
2022-10-02T06:22:59.697Z,13.21
2022-10-02T06:25:35.057Z,13.23
2022-10-02T06:28:26.593Z,13.23
2022-10-02T06:31:00.786Z,13.22
2022-10-02T06:33:31.059Z,13.23
2022-10-02T06:36:22.479Z,13.23
2022-10-02T06:38:51.929Z,13.25
2022-10-02T06:41:57.348Z,13.23
2022-10-02T06:44:41.795Z,13.24
2022-10-02T06:47:36.460Z,13.25
2022-10-02T06:50:21.382Z,13.26
2022-10-02T06:53:06.015Z,13.26
2022-10-02T06:55:35.329Z,13.26
2022-10-02T06:58:17.448Z,13.26
2022-10-02T07:00:55.583Z,13.26
2022-10-02T07:03:30.933Z,13.26
2022-10-02T07:06:09.440Z,13.26
2022-10-02T07:09:13.720Z,13.27
2022-10-02T07:12:04.101Z,13.27
2022-10-02T07:14:58.739Z,13.27
2022-10-02T07:17:40.832Z,13.26
2022-10-02T07:20:19.388Z,13.27
2022-10-02T07:22:55.105Z,13.27
2022-10-02T07:25:43.210Z,13.25
2022-10-02T07:28:18.808Z,13.25
2022-10-02T07:31:10.621Z,13.27
2022-10-02T07:33:52.036Z,13.28
2022-10-02T07:36:35.271Z,13.28
2022-10-02T07:39:17.018Z,13.26
2022-10-02T07:42:10.146Z,13.28
2022-10-02T07:44:46.348Z,13.29
2022-10-02T07:47:33.826Z,13.29
2022-10-02T07:50:12.195Z,13.32
2022-10-02T07:52:55.467Z,13.33
2022-10-02T07:55:23.743Z,13.33
2022-10-02T07:57:59.414Z,13.32
2022-10-02T08:00:28.274Z,13.28
2022-10-02T08:03:08.356Z,13.31
2022-10-02T08:05:46.892Z,13.35
2022-10-02T08:08:22.687Z,13.37
2022-10-02T08:10:55.951Z,13.35
2022-10-02T08:13:32.923Z,13.39
2022-10-02T08:16:00.751Z,13.38
2022-10-02T08:18:35.734Z,13.38
2022-10-02T08:21:08.528Z,13.38
2022-10-02T08:23:58.332Z,13.38
2022-10-02T08:26:35.941Z,13.39
2022-10-02T08:29:21.444Z,13.38
2022-10-02T08:31:52.018Z,13.37
2022-10-02T08:34:25.633Z,13.38
2022-10-02T08:37:06.959Z,13.37
2022-10-02T08:39:47.275Z,13.41
2022-10-02T08:42:32.442Z,13.40
2022-10-02T08:45:04.798Z,13.43
2022-10-02T08:48:06.362Z,13.45
2022-10-02T08:50:42.223Z,13.48
2022-10-02T08:53:30.184Z,13.51
2022-10-02T08:56:16.436Z,13.44
2022-10-02T08:58:45.560Z,13.46
2022-10-02T09:01:35.015Z,13.49
2022-10-02T09:04:10.539Z,13.54
2022-10-02T09:07:00.794Z,13.54
2022-10-02T09:09:59.162Z,13.55
2022-10-02T09:12:42.054Z,13.55
2022-10-02T09:15:18.041Z,13.58
2022-10-02T09:18:16.004Z,13.53
2022-10-02T09:21:11.706Z,13.54
2022-10-02T09:23:47.973Z,13.56
2022-10-02T09:26:56.392Z,13.54
2022-10-02T09:30:00.212Z,13.62
2022-10-02T09:32:53.944Z,13.65
2022-10-02T09:35:49.804Z,13.71
2022-10-02T09:38:29.492Z,13.71
2022-10-02T09:41:26.201Z,13.68
2022-10-02T09:44:18.460Z,13.80
2022-10-02T09:47:04.021Z,13.76
2022-10-02T09:49:57.347Z,13.80
2022-10-02T09:52:46.959Z,13.88
2022-10-02T09:55:36.666Z,13.83
2022-10-02T09:58:43.865Z,13.86
2022-10-02T10:01:27.844Z,13.87
2022-10-02T10:04:47.939Z,13.82
2022-10-02T10:07:55.850Z,13.86
2022-10-02T10:10:51.985Z,13.86
2022-10-02T10:13:49.140Z,13.86
2022-10-02T10:16:22.116Z,13.88
2022-10-02T10:19:02.923Z,13.84
2022-10-02T10:21:32.169Z,13.86
2022-10-02T10:24:06.263Z,13.85
2022-10-02T10:27:06.280Z,13.83
2022-10-02T10:29:54.301Z,13.89
2022-10-02T10:32:39.035Z,13.88
2022-10-02T10:35:28.367Z,13.88
2022-10-02T10:38:33.479Z,13.90
2022-10-02T10:41:37.506Z,13.93
2022-10-02T10:44:31.473Z,13.97
2022-10-02T10:47:03.929Z,14.00
2022-10-02T10:50:04.220Z,14.09
2022-10-02T10:52:42.438Z,14.20
2022-10-02T10:55:18.385Z,14.19
2022-10-02T10:58:03.299Z,14.25
2022-10-02T11:00:55.624Z,14.30
2022-10-02T11:03:42.215Z,14.37
2022-10-02T11:06:26.302Z,14.26
2022-10-02T11:09:04.686Z,14.28
2022-10-02T11:12:09.793Z,14.28
2022-10-02T11:14:55.207Z,14.27
2022-10-02T11:18:12.724Z,14.24
2022-10-02T11:20:56.564Z,14.10
2022-10-02T11:23:38.136Z,14.14
2022-10-02T11:26:27.506Z,14.18
2022-10-02T11:29:34.383Z,14.02
2022-10-02T11:32:28.240Z,14.08
2022-10-02T11:35:03.058Z,14.11
2022-10-02T11:37:40.244Z,14.11
2022-10-02T11:40:26.676Z,14.02
2022-10-02T11:43:17.370Z,14.07
2022-10-02T11:46:04.076Z,14.03
2022-10-02T11:48:44.847Z,14.07
2022-10-02T11:51:28.291Z,14.08
2022-10-02T11:54:09.703Z,14.01
2022-10-02T11:57:00.550Z,13.96
2022-10-02T12:00:05.904Z,14.00
2022-10-02T12:02:44.287Z,13.91
2022-10-02T12:05:43.020Z,13.99
2022-10-02T12:08:44.442Z,13.93
2022-10-02T12:11:25.832Z,13.97
2022-10-02T12:14:14.020Z,13.98
2022-10-02T12:16:52.441Z,13.94
2022-10-02T12:19:24.619Z,13.98
2022-10-02T12:22:36.175Z,14.00
2022-10-02T12:26:01.468Z,13.97
2022-10-02T12:28:36.252Z,14.02
2022-10-02T12:31:25.624Z,14.00
2022-10-02T12:34:01.226Z,14.07
2022-10-02T12:36:48.985Z,14.10
2022-10-02T12:39:41.570Z,14.22
2022-10-02T12:42:40.987Z,14.17
2022-10-02T12:45:35.042Z,14.19
2022-10-02T12:48:07.196Z,14.16
2022-10-02T12:51:05.875Z,14.15
2022-10-02T12:53:54.444Z,14.19
2022-10-02T12:56:45.674Z,14.27
2022-10-02T12:59:41.808Z,14.25
2022-10-02T13:02:17.528Z,14.23
2022-10-02T13:05:10.081Z,14.29
2022-10-02T13:08:15.913Z,14.32
2022-10-02T13:11:00.637Z,14.29
2022-10-02T13:13:51.440Z,14.24
2022-10-02T13:16:21.812Z,14.28
2022-10-02T13:19:19.798Z,14.24
2022-10-02T13:21:59.107Z,14.29
2022-10-02T13:24:49.929Z,14.20
2022-10-02T13:27:46.281Z,14.14
2022-10-02T13:30:23.967Z,14.11
2022-10-02T13:33:46.560Z,14.12
2022-10-02T13:36:35.286Z,14.19
2022-10-02T13:39:26.855Z,14.25
2022-10-02T13:42:17.981Z,14.15
2022-10-02T13:45:22.296Z,14.25
2022-10-02T13:48:03.770Z,14.24
2022-10-02T13:50:46.695Z,14.17
2022-10-02T13:53:25.002Z,14.22
2022-10-02T13:56:02.829Z,14.15
2022-10-02T13:58:29.098Z,14.19
2022-10-02T14:01:01.450Z,14.22
2022-10-02T14:03:55.918Z,14.17
2022-10-02T14:06:29.119Z,14.23
2022-10-02T14:09:20.457Z,14.25
2022-10-02T14:12:14.859Z,14.28
2022-10-02T14:14:56.575Z,14.27
2022-10-02T14:17:25.991Z,14.26
2022-10-02T14:19:52.620Z,14.22
2022-10-02T14:22:37.690Z,14.20
2022-10-02T14:25:34.870Z,14.25
2022-10-02T14:28:33.939Z,14.29
2022-10-02T14:31:26.300Z,14.28
2022-10-02T14:34:02.833Z,14.28
2022-10-02T14:36:38.288Z,14.23
2022-10-02T14:39:10.433Z,14.29
2022-10-02T14:42:07.168Z,14.32
2022-10-02T14:44:52.345Z,14.25
2022-10-02T14:47:51.429Z,14.27
2022-10-02T14:50:34.763Z,14.25
2022-10-02T14:53:19.775Z,14.18
2022-10-02T14:55:49.074Z,14.22
2022-10-02T14:58:15.444Z,14.18
2022-10-02T15:00:51.027Z,14.21
2022-10-02T15:03:55.337Z,14.19
2022-10-02T15:06:52.600Z,14.15
2022-10-02T15:09:28.928Z,14.20
2022-10-02T15:12:04.486Z,14.15
2022-10-02T15:14:34.563Z,14.13
2022-10-02T15:17:33.564Z,14.13
2022-10-02T15:20:24.263Z,14.07
2022-10-02T15:23:07.499Z,14.04
2022-10-02T15:26:00.344Z,13.97
2022-10-02T15:28:37.582Z,13.98
2022-10-02T15:31:44.210Z,13.92
2022-10-02T15:34:30.488Z,13.93
2022-10-02T15:37:18.027Z,13.84
2022-10-02T15:40:02.852Z,13.88
2022-10-02T15:42:55.028Z,13.84
2022-10-02T15:45:36.343Z,13.81
2022-10-02T15:48:36.887Z,13.78
2022-10-02T15:51:19.354Z,13.76
2022-10-02T15:54:10.393Z,13.76
2022-10-02T15:57:00.739Z,13.70
2022-10-02T15:59:55.792Z,13.66
2022-10-02T16:02:53.356Z,13.65
2022-10-02T16:05:31.992Z,13.62
2022-10-02T16:08:27.861Z,13.61
2022-10-02T16:10:57.080Z,13.60
2022-10-02T16:13:23.521Z,13.60
2022-10-02T16:15:52.330Z,13.59
2022-10-02T16:18:37.717Z,13.60
2022-10-02T16:21:26.269Z,13.60
2022-10-02T16:24:20.706Z,13.60
2022-10-02T16:27:19.243Z,13.59
2022-10-02T16:30:08.266Z,13.59
2022-10-02T16:32:46.879Z,13.57
2022-10-02T16:35:32.084Z,13.59
2022-10-02T16:38:24.647Z,13.57
2022-10-02T16:41:13.573Z,13.55
2022-10-02T16:43:48.957Z,13.52
2022-10-02T16:46:24.673Z,13.51
2022-10-02T16:49:01.634Z,13.49
2022-10-02T16:52:01.476Z,13.47
2022-10-02T16:54:37.854Z,13.46
2022-10-02T16:57:27.916Z,13.46
2022-10-02T17:00:02.459Z,13.46
2022-10-02T17:02:52.703Z,13.47
2022-10-02T17:05:36.717Z,13.46
2022-10-02T17:08:28.600Z,13.46
2022-10-02T17:11:08.745Z,13.44
2022-10-02T17:13:54.168Z,13.41
2022-10-02T17:16:27.583Z,13.41
2022-10-02T17:18:59.934Z,13.38
2022-10-02T17:21:31.996Z,13.37
2022-10-02T17:24:16.561Z,13.34
2022-10-02T17:26:56.422Z,13.33
2022-10-02T17:29:29.352Z,13.29
2022-10-02T17:31:58.825Z,13.29
2022-10-02T17:34:29.620Z,13.24
2022-10-02T17:37:08.442Z,13.25
2022-10-02T17:39:59.025Z,13.24
2022-10-02T17:42:32.677Z,13.22
2022-10-02T17:45:17.987Z,13.20
2022-10-02T17:47:55.310Z,13.16
2022-10-02T17:50:30.901Z,13.14
2022-10-02T17:54:03.369Z,13.13
2022-10-02T17:57:15.259Z,13.07
2022-10-02T18:00:09.685Z,13.03
2022-10-02T18:02:56.398Z,12.96
2022-10-02T18:05:49.721Z,12.89
2022-10-02T18:08:54.358Z,12.93
2022-10-02T18:11:54.313Z,12.89
2022-10-02T18:14:39.087Z,12.85
2022-10-02T18:17:52.226Z,12.82
2022-10-02T18:20:37.094Z,12.78
2022-10-02T18:23:22.665Z,12.73
2022-10-02T18:26:05.147Z,12.73
2022-10-02T18:28:55.470Z,12.76
2022-10-02T18:31:56.850Z,12.77
2022-10-02T18:34:29.914Z,12.79
2022-10-02T18:37:14.312Z,12.77
2022-10-02T18:39:52.034Z,12.77
2022-10-02T18:42:40.833Z,12.72
2022-10-02T18:45:27.441Z,12.71
2022-10-02T18:48:19.771Z,12.67
2022-10-02T18:51:05.060Z,12.67
2022-10-02T18:54:05.904Z,12.64
2022-10-02T18:56:51.331Z,12.59
2022-10-02T18:59:26.468Z,12.58
2022-10-02T19:02:05.513Z,12.54
2022-10-02T19:04:53.786Z,12.55
2022-10-02T19:08:08.571Z,12.57
2022-10-02T19:10:34.839Z,12.59
2022-10-02T19:13:18.273Z,12.67
2022-10-02T19:15:46.729Z,12.69
2022-10-02T19:18:21.758Z,12.71
2022-10-02T19:20:53.649Z,12.76
2022-10-02T19:23:23.005Z,12.78
2022-10-02T19:25:50.810Z,12.82
2022-10-02T19:28:23.236Z,12.90
2022-10-02T19:30:53.087Z,12.90
2022-10-02T19:33:32.187Z,12.96
2022-10-02T19:36:10.775Z,12.98
2022-10-02T19:38:39.880Z,13.00
2022-10-02T19:41:09.841Z,13.02
2022-10-02T19:43:46.510Z,13.05
2022-10-02T19:46:15.611Z,13.07
2022-10-02T19:48:45.016Z,13.09
2022-10-02T19:51:21.232Z,13.08
2022-10-02T19:53:54.496Z,13.12
2022-10-02T19:56:30.181Z,13.14
2022-10-02T19:59:05.697Z,13.15
2022-10-02T20:01:57.680Z,13.16
2022-10-02T20:04:33.230Z,13.15
2022-10-02T20:07:00.236Z,13.14
2022-10-02T20:09:55.293Z,13.15
2022-10-02T20:12:31.163Z,13.14
2022-10-02T20:15:15.594Z,13.12
2022-10-02T20:17:49.468Z,13.12
2022-10-02T20:20:20.719Z,13.12
2022-10-02T20:22:48.147Z,13.11
2022-10-02T20:25:28.309Z,13.11
2022-10-02T20:28:04.184Z,13.08
2022-10-02T20:30:41.673Z,13.07
2022-10-02T20:33:34.331Z,13.03
2022-10-02T20:36:09.164Z,13.02
2022-10-02T20:38:40.738Z,13.01
2022-10-02T20:41:30.841Z,12.99
2022-10-02T20:44:04.261Z,12.91
2022-10-02T20:46:33.399Z,12.83
2022-10-02T20:49:28.421Z,12.82
2022-10-02T20:52:06.504Z,12.80
2022-10-02T20:54:58.133Z,12.78
2022-10-02T20:58:02.048Z,12.75
2022-10-02T21:00:53.314Z,12.75
2022-10-02T21:03:35.537Z,12.74
2022-10-02T21:06:04.683Z,12.68
2022-10-02T21:09:08.595Z,12.70
2022-10-02T21:12:13.303Z,12.69
2022-10-02T21:14:54.623Z,12.66
2022-10-02T21:17:42.748Z,12.64
2022-10-02T21:20:50.106Z,12.64
2022-10-02T21:23:50.481Z,12.57
2022-10-02T21:26:27.363Z,12.54
2022-10-02T21:29:24.046Z,12.45
2022-10-02T21:32:10.169Z,12.47
2022-10-02T21:34:54.386Z,12.42
2022-10-02T21:37:36.226Z,12.45
2022-10-02T21:40:15.000Z,12.40
2022-10-02T21:43:00.678Z,12.32
2022-10-02T21:45:51.147Z,12.32
2022-10-02T21:48:29.548Z,12.30
2022-10-02T21:51:33.278Z,12.32
2022-10-02T21:54:14.473Z,12.24
2022-10-02T21:56:59.597Z,12.22
2022-10-02T22:00:11.036Z,12.20
2022-10-02T22:02:53.186Z,12.13
2022-10-02T22:05:41.256Z,12.06
2022-10-02T22:08:35.022Z,12.04
2022-10-02T22:11:09.603Z,11.97
2022-10-02T22:13:40.787Z,11.89
2022-10-02T22:16:20.255Z,11.83
2022-10-02T22:19:17.695Z,11.73
2022-10-02T22:22:01.694Z,11.70
2022-10-02T22:24:30.193Z,11.72
2022-10-02T22:27:06.958Z,11.64
2022-10-02T22:30:03.555Z,11.62
2022-10-02T22:32:59.688Z,11.54
2022-10-02T22:35:57.902Z,11.51
2022-10-02T22:38:33.275Z,11.43
2022-10-02T22:41:22.499Z,11.34
2022-10-02T22:43:57.321Z,11.25
2022-10-02T22:46:42.018Z,11.21
2022-10-02T22:49:27.335Z,11.14
2022-10-02T22:52:09.014Z,11.11
2022-10-02T22:54:45.719Z,11.04
2022-10-02T22:57:20.191Z,11.02
2022-10-02T22:59:56.378Z,11.03
2022-10-02T23:02:34.072Z,11.02
2022-10-02T23:05:14.034Z,11.01
2022-10-02T23:07:49.731Z,10.97
2022-10-02T23:10:25.015Z,11.00
2022-10-02T23:13:09.664Z,10.98
2022-10-02T23:15:49.312Z,10.98
2022-10-02T23:18:36.937Z,10.88
2022-10-02T23:21:33.537Z,10.88
2022-10-02T23:24:28.999Z,10.83
2022-10-02T23:26:55.487Z,10.76
2022-10-02T23:29:47.769Z,10.65
2022-10-02T23:32:31.530Z,10.66
2022-10-02T23:35:19.860Z,10.60
2022-10-02T23:38:01.698Z,10.57
2022-10-02T23:40:51.255Z,10.55
2022-10-02T23:43:36.198Z,10.45
2022-10-02T23:46:09.408Z,10.44
2022-10-02T23:48:40.738Z,10.56
2022-10-02T23:51:16.423Z,10.59
2022-10-02T23:54:02.987Z,10.65
2022-10-02T23:56:35.496Z,10.66
2022-10-02T23:59:27.997Z,10.61
